sensor_id;sensor_type;location;lat;lon;timestamp;P1;durP1;ratioP1;P2;durP2;ratioP2
56307;SDS011;42217;50.422;7.210;2023-04-25T00:00:52;509.77;;;483.57;;
56307;SDS011;42217;50.422;7.210;2023-04-25T00:03:18;477.50;;;452.60;;
56307;SDS011;42217;50.422;7.210;2023-04-25T00:05:44;467.90;;;443.77;;
56307;SDS011;42217;50.422;7.210;2023-04-25T00:08:10;452.70;;;429.30;;
56307;SDS011;42217;50.422;7.210;2023-04-25T00:10:36;443.13;;;420.50;;
56307;SDS011;42217;50.422;7.210;2023-04-25T00:13:01;412.77;;;391.67;;
56307;SDS011;42217;50.422;7.210;2023-04-25T00:15:27;397.53;;;377.13;;
56307;SDS011;42217;50.422;7.210;2023-04-25T00:17:55;384.90;;;365.33;;
56307;SDS011;42217;50.422;7.210;2023-04-25T00:20:21;371.43;;;352.47;;
56307;SDS011;42217;50.422;7.210;2023-04-25T00:22:48;367.60;;;348.90;;
56307;SDS011;42217;50.422;7.210;2023-04-25T00:25:14;390.87;;;371.07;;
56307;SDS011;42217;50.422;7.210;2023-04-25T00:27:40;413.30;;;392.03;;
56307;SDS011;42217;50.422;7.210;2023-04-25T00:30:07;444.37;;;422.07;;
56307;SDS011;42217;50.422;7.210;2023-04-25T00:32:33;477.13;;;452.17;;
56307;SDS011;42217;50.422;7.210;2023-04-25T00:34:59;510.63;;;483.87;;
56307;SDS011;42217;50.422;7.210;2023-04-25T00:37:24;487.20;;;461.97;;
56307;SDS011;42217;50.422;7.210;2023-04-25T00:39:50;485.17;;;459.57;;
56307;SDS011;42217;50.422;7.210;2023-04-25T00:42:18;495.17;;;469.27;;
56307;SDS011;42217;50.422;7.210;2023-04-25T00:44:44;464.60;;;440.13;;
56307;SDS011;42217;50.422;7.210;2023-04-25T00:47:10;466.17;;;442.33;;
56307;SDS011;42217;50.422;7.210;2023-04-25T00:49:37;440.97;;;418.20;;
56307;SDS011;42217;50.422;7.210;2023-04-25T00:52:02;460.40;;;436.67;;
56307;SDS011;42217;50.422;7.210;2023-04-25T00:54:29;462.13;;;438.57;;
56307;SDS011;42217;50.422;7.210;2023-04-25T00:56:55;509.40;;;482.17;;
56307;SDS011;42217;50.422;7.210;2023-04-25T00:59:21;520.20;;;493.07;;
56307;SDS011;42217;50.422;7.210;2023-04-25T01:01:47;553.77;;;524.63;;
56307;SDS011;42217;50.422;7.210;2023-04-25T01:04:13;564.10;;;534.27;;
56307;SDS011;42217;50.422;7.210;2023-04-25T01:06:39;558.43;;;528.30;;
56307;SDS011;42217;50.422;7.210;2023-04-25T01:09:05;529.90;;;502.37;;
56307;SDS011;42217;50.422;7.210;2023-04-25T01:11:32;517.30;;;489.93;;
56307;SDS011;42217;50.422;7.210;2023-04-25T01:13:58;526.33;;;498.33;;
56307;SDS011;42217;50.422;7.210;2023-04-25T01:16:24;530.43;;;502.53;;
56307;SDS011;42217;50.422;7.210;2023-04-25T01:18:50;547.73;;;518.50;;
56307;SDS011;42217;50.422;7.210;2023-04-25T01:21:16;548.13;;;518.93;;
56307;SDS011;42217;50.422;7.210;2023-04-25T01:23:42;542.10;;;513.33;;
56307;SDS011;42217;50.422;7.210;2023-04-25T01:26:09;533.53;;;506.17;;
56307;SDS011;42217;50.422;7.210;2023-04-25T01:28:36;469.50;;;445.33;;
56307;SDS011;42217;50.422;7.210;2023-04-25T01:31:04;448.13;;;425.67;;
56307;SDS011;42217;50.422;7.210;2023-04-25T01:33:30;421.37;;;400.47;;
56307;SDS011;42217;50.422;7.210;2023-04-25T01:35:56;364.77;;;345.43;;
56307;SDS011;42217;50.422;7.210;2023-04-25T01:38:22;382.47;;;363.60;;
56307;SDS011;42217;50.422;7.210;2023-04-25T01:40:49;376.67;;;358.13;;
56307;SDS011;42217;50.422;7.210;2023-04-25T01:43:16;305.73;;;290.57;;
56307;SDS011;42217;50.422;7.210;2023-04-25T01:45:42;305.43;;;290.10;;
56307;SDS011;42217;50.422;7.210;2023-04-25T01:48:08;294.73;;;280.07;;
56307;SDS011;42217;50.422;7.210;2023-04-25T01:50:38;311.13;;;295.77;;
56307;SDS011;42217;50.422;7.210;2023-04-25T01:53:05;326.30;;;310.40;;
56307;SDS011;42217;50.422;7.210;2023-04-25T01:55:31;301.90;;;287.17;;
56307;SDS011;42217;50.422;7.210;2023-04-25T01:57:58;347.10;;;330.27;;
56307;SDS011;42217;50.422;7.210;2023-04-25T02:00:25;406.13;;;385.67;;
56307;SDS011;42217;50.422;7.210;2023-04-25T02:02:51;485.77;;;460.47;;
56307;SDS011;42217;50.422;7.210;2023-04-25T02:05:18;520.13;;;493.20;;
56307;SDS011;42217;50.422;7.210;2023-04-25T02:07:45;525.50;;;498.13;;
56307;SDS011;42217;50.422;7.210;2023-04-25T02:10:13;526.13;;;498.60;;
56307;SDS011;42217;50.422;7.210;2023-04-25T02:12:39;525.00;;;497.73;;
56307;SDS011;42217;50.422;7.210;2023-04-25T02:15:04;527.60;;;500.13;;
56307;SDS011;42217;50.422;7.210;2023-04-25T02:17:31;535.70;;;507.90;;
56307;SDS011;42217;50.422;7.210;2023-04-25T02:19:57;534.13;;;504.87;;
56307;SDS011;42217;50.422;7.210;2023-04-25T02:22:23;536.27;;;508.40;;
56307;SDS011;42217;50.422;7.210;2023-04-25T02:24:48;543.47;;;515.17;;
56307;SDS011;42217;50.422;7.210;2023-04-25T02:27:14;549.70;;;520.93;;
56307;SDS011;42217;50.422;7.210;2023-04-25T02:29:40;533.07;;;504.63;;
56307;SDS011;42217;50.422;7.210;2023-04-25T02:32:06;533.27;;;504.77;;
56307;SDS011;42217;50.422;7.210;2023-04-25T02:34:31;547.80;;;519.83;;
56307;SDS011;42217;50.422;7.210;2023-04-25T02:36:57;549.67;;;520.23;;
56307;SDS011;42217;50.422;7.210;2023-04-25T02:39:23;551.30;;;522.63;;
56307;SDS011;42217;50.422;7.210;2023-04-25T02:41:50;534.80;;;507.27;;
56307;SDS011;42217;50.422;7.210;2023-04-25T02:44:16;534.30;;;506.40;;
56307;SDS011;42217;50.422;7.210;2023-04-25T02:46:42;521.70;;;495.10;;
56307;SDS011;42217;50.422;7.210;2023-04-25T02:49:07;526.13;;;498.67;;
56307;SDS011;42217;50.422;7.210;2023-04-25T02:51:33;532.53;;;504.87;;
56307;SDS011;42217;50.422;7.210;2023-04-25T02:53:59;476.17;;;451.83;;
56307;SDS011;42217;50.422;7.210;2023-04-25T02:56:24;511.37;;;484.80;;
56307;SDS011;42217;50.422;7.210;2023-04-25T02:58:51;500.97;;;475.57;;
56307;SDS011;42217;50.422;7.210;2023-04-25T03:01:17;522.63;;;495.37;;
56307;SDS011;42217;50.422;7.210;2023-04-25T03:03:42;480.13;;;455.23;;
56307;SDS011;42217;50.422;7.210;2023-04-25T03:06:08;475.17;;;451.17;;
56307;SDS011;42217;50.422;7.210;2023-04-25T03:08:34;425.07;;;403.40;;
56307;SDS011;42217;50.422;7.210;2023-04-25T03:10:59;361.20;;;343.37;;
56307;SDS011;42217;50.422;7.210;2023-04-25T03:13:25;411.67;;;390.97;;
56307;SDS011;42217;50.422;7.210;2023-04-25T03:15:52;446.13;;;423.10;;
56307;SDS011;42217;50.422;7.210;2023-04-25T03:18:18;509.70;;;482.90;;
56307;SDS011;42217;50.422;7.210;2023-04-25T03:20:43;536.30;;;508.27;;
56307;SDS011;42217;50.422;7.210;2023-04-25T03:23:09;534.90;;;506.63;;
56307;SDS011;42217;50.422;7.210;2023-04-25T03:25:35;558.67;;;529.53;;
56307;SDS011;42217;50.422;7.210;2023-04-25T03:28:00;567.90;;;537.70;;
56307;SDS011;42217;50.422;7.210;2023-04-25T03:30:26;546.80;;;517.53;;
56307;SDS011;42217;50.422;7.210;2023-04-25T03:32:52;535.20;;;506.33;;
56307;SDS011;42217;50.422;7.210;2023-04-25T03:35:17;543.10;;;514.00;;
56307;SDS011;42217;50.422;7.210;2023-04-25T03:37:43;536.60;;;508.40;;
56307;SDS011;42217;50.422;7.210;2023-04-25T03:40:11;534.53;;;507.00;;
56307;SDS011;42217;50.422;7.210;2023-04-25T03:42:37;482.23;;;457.03;;
56307;SDS011;42217;50.422;7.210;2023-04-25T03:45:03;478.27;;;453.97;;
56307;SDS011;42217;50.422;7.210;2023-04-25T03:47:29;505.50;;;479.67;;
56307;SDS011;42217;50.422;7.210;2023-04-25T03:49:55;502.13;;;476.23;;
56307;SDS011;42217;50.422;7.210;2023-04-25T03:52:21;469.13;;;445.57;;
56307;SDS011;42217;50.422;7.210;2023-04-25T03:54:46;425.60;;;404.17;;
56307;SDS011;42217;50.422;7.210;2023-04-25T03:57:12;436.40;;;414.93;;
56307;SDS011;42217;50.422;7.210;2023-04-25T03:59:38;446.13;;;422.83;;
56307;SDS011;42217;50.422;7.210;2023-04-25T04:02:03;499.27;;;472.57;;
56307;SDS011;42217;50.422;7.210;2023-04-25T04:04:29;519.53;;;491.83;;
56307;SDS011;42217;50.422;7.210;2023-04-25T04:06:55;499.20;;;473.77;;
56307;SDS011;42217;50.422;7.210;2023-04-25T04:09:21;471.50;;;447.30;;
56307;SDS011;42217;50.422;7.210;2023-04-25T04:11:47;444.33;;;421.97;;
56307;SDS011;42217;50.422;7.210;2023-04-25T04:14:12;401.27;;;381.13;;
56307;SDS011;42217;50.422;7.210;2023-04-25T04:16:38;321.90;;;305.87;;
56307;SDS011;42217;50.422;7.210;2023-04-25T04:19:04;293.63;;;279.27;;
56307;SDS011;42217;50.422;7.210;2023-04-25T04:21:30;148.50;;;140.60;;
56307;SDS011;42217;50.422;7.210;2023-04-25T04:23:56;114.67;;;108.07;;
56307;SDS011;42217;50.422;7.210;2023-04-25T04:26:24;116.80;;;110.17;;
56307;SDS011;42217;50.422;7.210;2023-04-25T04:28:51;103.07;;;97.30;;
56307;SDS011;42217;50.422;7.210;2023-04-25T04:31:19;107.43;;;101.53;;
56307;SDS011;42217;50.422;7.210;2023-04-25T04:33:48;102.73;;;96.97;;
56307;SDS011;42217;50.422;7.210;2023-04-25T04:36:15;100.00;;;94.47;;
56307;SDS011;42217;50.422;7.210;2023-04-25T04:38:40;98.23;;;92.70;;
56307;SDS011;42217;50.422;7.210;2023-04-25T04:41:07;95.77;;;90.57;;
56307;SDS011;42217;50.422;7.210;2023-04-25T04:43:33;101.90;;;95.93;;
56307;SDS011;42217;50.422;7.210;2023-04-25T04:46:01;100.73;;;95.40;;
56307;SDS011;42217;50.422;7.210;2023-04-25T04:48:29;93.87;;;88.50;;
56307;SDS011;42217;50.422;7.210;2023-04-25T04:50:57;96.33;;;90.93;;
56307;SDS011;42217;50.422;7.210;2023-04-25T04:53:23;99.77;;;94.13;;
56307;SDS011;42217;50.422;7.210;2023-04-25T04:55:49;98.27;;;92.30;;
56307;SDS011;42217;50.422;7.210;2023-04-25T04:58:15;95.40;;;90.30;;
56307;SDS011;42217;50.422;7.210;2023-04-25T05:00:40;96.00;;;90.40;;
56307;SDS011;42217;50.422;7.210;2023-04-25T05:03:06;96.47;;;90.20;;
56307;SDS011;42217;50.422;7.210;2023-04-25T05:05:32;95.17;;;89.50;;
56307;SDS011;42217;50.422;7.210;2023-04-25T05:07:58;98.40;;;93.40;;
56307;SDS011;42217;50.422;7.210;2023-04-25T05:10:23;99.80;;;93.77;;
56307;SDS011;42217;50.422;7.210;2023-04-25T05:12:50;94.77;;;89.27;;
56307;SDS011;42217;50.422;7.210;2023-04-25T05:15:16;98.60;;;93.57;;
56307;SDS011;42217;50.422;7.210;2023-04-25T05:17:42;89.37;;;84.50;;
56307;SDS011;42217;50.422;7.210;2023-04-25T05:20:08;99.73;;;94.13;;
56307;SDS011;42217;50.422;7.210;2023-04-25T05:22:34;97.60;;;92.23;;
56307;SDS011;42217;50.422;7.210;2023-04-25T05:25:00;99.20;;;93.53;;
56307;SDS011;42217;50.422;7.210;2023-04-25T05:27:26;105.03;;;99.10;;
56307;SDS011;42217;50.422;7.210;2023-04-25T05:29:52;100.03;;;94.90;;
56307;SDS011;42217;50.422;7.210;2023-04-25T05:32:17;95.43;;;89.90;;
56307;SDS011;42217;50.422;7.210;2023-04-25T05:34:43;100.47;;;94.70;;
56307;SDS011;42217;50.422;7.210;2023-04-25T05:37:09;98.47;;;93.07;;
56307;SDS011;42217;50.422;7.210;2023-04-25T05:39:35;101.80;;;96.33;;
56307;SDS011;42217;50.422;7.210;2023-04-25T05:42:01;96.83;;;91.37;;
56307;SDS011;42217;50.422;7.210;2023-04-25T05:44:27;93.07;;;87.73;;
56307;SDS011;42217;50.422;7.210;2023-04-25T05:46:53;94.70;;;89.37;;
56307;SDS011;42217;50.422;7.210;2023-04-25T05:49:18;98.23;;;93.00;;
56307;SDS011;42217;50.422;7.210;2023-04-25T05:51:44;90.80;;;85.37;;
56307;SDS011;42217;50.422;7.210;2023-04-25T05:54:10;100.10;;;94.57;;
56307;SDS011;42217;50.422;7.210;2023-04-25T05:56:36;101.63;;;95.63;;
56307;SDS011;42217;50.422;7.210;2023-04-25T05:59:01;118.40;;;112.10;;
56307;SDS011;42217;50.422;7.210;2023-04-25T06:01:28;94.13;;;89.47;;
56307;SDS011;42217;50.422;7.210;2023-04-25T06:03:53;92.03;;;87.63;;
56307;SDS011;42217;50.422;7.210;2023-04-25T06:06:19;85.97;;;81.50;;
56307;SDS011;42217;50.422;7.210;2023-04-25T06:08:44;96.30;;;90.87;;
56307;SDS011;42217;50.422;7.210;2023-04-25T06:11:10;132.40;;;125.83;;
56307;SDS011;42217;50.422;7.210;2023-04-25T06:13:36;97.73;;;92.40;;
56307;SDS011;42217;50.422;7.210;2023-04-25T06:16:02;121.60;;;115.43;;
56307;SDS011;42217;50.422;7.210;2023-04-25T06:18:28;110.73;;;105.00;;
56307;SDS011;42217;50.422;7.210;2023-04-25T06:20:53;223.10;;;211.70;;
56307;SDS011;42217;50.422;7.210;2023-04-25T06:23:19;97.93;;;92.33;;
56307;SDS011;42217;50.422;7.210;2023-04-25T06:25:45;100.87;;;95.57;;
56307;SDS011;42217;50.422;7.210;2023-04-25T06:28:11;104.57;;;97.83;;
56307;SDS011;42217;50.422;7.210;2023-04-25T06:30:37;100.07;;;94.27;;
56307;SDS011;42217;50.422;7.210;2023-04-25T06:33:02;108.87;;;102.57;;
56307;SDS011;42217;50.422;7.210;2023-04-25T06:35:28;107.70;;;102.07;;
56307;SDS011;42217;50.422;7.210;2023-04-25T06:37:54;100.47;;;94.27;;
56307;SDS011;42217;50.422;7.210;2023-04-25T06:40:19;107.03;;;101.23;;
56307;SDS011;42217;50.422;7.210;2023-04-25T06:42:45;108.43;;;101.87;;
56307;SDS011;42217;50.422;7.210;2023-04-25T06:45:11;119.97;;;113.17;;
56307;SDS011;42217;50.422;7.210;2023-04-25T06:47:36;147.30;;;139.20;;
56307;SDS011;42217;50.422;7.210;2023-04-25T06:50:02;162.20;;;153.30;;
56307;SDS011;42217;50.422;7.210;2023-04-25T06:52:28;178.77;;;169.83;;
56307;SDS011;42217;50.422;7.210;2023-04-25T06:54:54;198.63;;;188.27;;
56307;SDS011;42217;50.422;7.210;2023-04-25T06:57:19;150.90;;;143.00;;
56307;SDS011;42217;50.422;7.210;2023-04-25T06:59:45;141.03;;;133.30;;
56307;SDS011;42217;50.422;7.210;2023-04-25T07:02:11;126.43;;;119.93;;
56307;SDS011;42217;50.422;7.210;2023-04-25T07:04:36;136.07;;;128.43;;
56307;SDS011;42217;50.422;7.210;2023-04-25T07:07:02;108.43;;;102.47;;
56307;SDS011;42217;50.422;7.210;2023-04-25T07:09:28;107.07;;;101.00;;
56307;SDS011;42217;50.422;7.210;2023-04-25T07:11:54;117.10;;;110.93;;
56307;SDS011;42217;50.422;7.210;2023-04-25T07:14:21;97.83;;;91.90;;
56307;SDS011;42217;50.422;7.210;2023-04-25T07:16:47;129.80;;;122.67;;
56307;SDS011;42217;50.422;7.210;2023-04-25T07:19:12;122.47;;;115.40;;
56307;SDS011;42217;50.422;7.210;2023-04-25T07:21:38;98.23;;;92.73;;
56307;SDS011;42217;50.422;7.210;2023-04-25T07:24:04;92.57;;;87.37;;
56307;SDS011;42217;50.422;7.210;2023-04-25T07:26:30;97.63;;;91.80;;
56307;SDS011;42217;50.422;7.210;2023-04-25T07:28:56;90.90;;;84.63;;
56307;SDS011;42217;50.422;7.210;2023-04-25T07:31:21;105.33;;;98.70;;
56307;SDS011;42217;50.422;7.210;2023-04-25T07:33:48;92.67;;;86.67;;
56307;SDS011;42217;50.422;7.210;2023-04-25T07:36:13;95.27;;;88.33;;
56307;SDS011;42217;50.422;7.210;2023-04-25T07:38:40;112.97;;;106.53;;
56307;SDS011;42217;50.422;7.210;2023-04-25T07:41:06;123.00;;;116.03;;
56307;SDS011;42217;50.422;7.210;2023-04-25T07:43:32;101.07;;;95.57;;
56307;SDS011;42217;50.422;7.210;2023-04-25T07:45:57;108.47;;;102.33;;
56307;SDS011;42217;50.422;7.210;2023-04-25T07:48:23;130.77;;;123.93;;
56307;SDS011;42217;50.422;7.210;2023-04-25T07:50:49;88.73;;;83.40;;
56307;SDS011;42217;50.422;7.210;2023-04-25T07:53:15;134.63;;;127.37;;
56307;SDS011;42217;50.422;7.210;2023-04-25T07:55:42;137.13;;;128.93;;
56307;SDS011;42217;50.422;7.210;2023-04-25T07:58:08;96.37;;;90.83;;
56307;SDS011;42217;50.422;7.210;2023-04-25T08:00:35;103.53;;;97.57;;
56307;SDS011;42217;50.422;7.210;2023-04-25T08:03:01;102.13;;;95.87;;
56307;SDS011;42217;50.422;7.210;2023-04-25T08:05:27;103.50;;;97.63;;
56307;SDS011;42217;50.422;7.210;2023-04-25T08:07:53;84.53;;;79.43;;
56307;SDS011;42217;50.422;7.210;2023-04-25T08:10:19;96.03;;;90.93;;
56307;SDS011;42217;50.422;7.210;2023-04-25T08:12:45;103.63;;;97.60;;
56307;SDS011;42217;50.422;7.210;2023-04-25T08:15:11;192.77;;;183.13;;
56307;SDS011;42217;50.422;7.210;2023-04-25T08:17:38;118.23;;;111.73;;
56307;SDS011;42217;50.422;7.210;2023-04-25T08:20:04;164.37;;;156.13;;
56307;SDS011;42217;50.422;7.210;2023-04-25T08:22:31;166.13;;;158.13;;
56307;SDS011;42217;50.422;7.210;2023-04-25T08:24:56;149.50;;;141.13;;
56307;SDS011;42217;50.422;7.210;2023-04-25T08:27:22;164.10;;;155.87;;
56307;SDS011;42217;50.422;7.210;2023-04-25T08:29:48;134.70;;;127.83;;
56307;SDS011;42217;50.422;7.210;2023-04-25T08:32:15;170.67;;;161.90;;
56307;SDS011;42217;50.422;7.210;2023-04-25T08:34:41;146.53;;;139.27;;
56307;SDS011;42217;50.422;7.210;2023-04-25T08:37:09;166.27;;;157.70;;
56307;SDS011;42217;50.422;7.210;2023-04-25T08:39:38;151.57;;;143.63;;
56307;SDS011;42217;50.422;7.210;2023-04-25T08:42:05;158.87;;;151.23;;
56307;SDS011;42217;50.422;7.210;2023-04-25T08:44:34;179.17;;;170.93;;
56307;SDS011;42217;50.422;7.210;2023-04-25T08:47:02;208.37;;;198.07;;
56307;SDS011;42217;50.422;7.210;2023-04-25T08:49:30;173.77;;;165.53;;
56307;SDS011;42217;50.422;7.210;2023-04-25T08:51:59;213.50;;;203.30;;
56307;SDS011;42217;50.422;7.210;2023-04-25T08:54:27;252.93;;;240.43;;
56307;SDS011;42217;50.422;7.210;2023-04-25T08:56:53;209.87;;;200.00;;
56307;SDS011;42217;50.422;7.210;2023-04-25T08:59:20;186.73;;;177.30;;
56307;SDS011;42217;50.422;7.210;2023-04-25T09:01:48;233.90;;;222.20;;
56307;SDS011;42217;50.422;7.210;2023-04-25T09:04:14;214.67;;;204.27;;
56307;SDS011;42217;50.422;7.210;2023-04-25T09:06:41;177.13;;;168.63;;
56307;SDS011;42217;50.422;7.210;2023-04-25T09:09:07;182.40;;;173.93;;
56307;SDS011;42217;50.422;7.210;2023-04-25T09:11:35;192.77;;;183.63;;
56307;SDS011;42217;50.422;7.210;2023-04-25T09:16:59;229.00;;;218.63;;
56307;SDS011;42217;50.422;7.210;2023-04-25T09:19:27;223.23;;;212.73;;
56307;SDS011;42217;50.422;7.210;2023-04-25T09:21:55;227.17;;;216.07;;
56307;SDS011;42217;50.422;7.210;2023-04-25T09:24:38;185.97;;;176.40;;
56307;SDS011;42217;50.422;7.210;2023-04-25T09:27:07;176.97;;;168.63;;
56307;SDS011;42217;50.422;7.210;2023-04-25T09:29:35;183.23;;;174.67;;
56307;SDS011;42217;50.422;7.210;2023-04-25T09:34:41;113.17;;;107.10;;
56307;SDS011;42217;50.422;7.210;2023-04-25T09:37:10;135.53;;;128.97;;
56307;SDS011;42217;50.422;7.210;2023-04-25T09:39:37;88.20;;;82.97;;
56307;SDS011;42217;50.422;7.210;2023-04-25T09:42:04;108.40;;;102.97;;
56307;SDS011;42217;50.422;7.210;2023-04-25T09:44:30;106.20;;;100.30;;
56307;SDS011;42217;50.422;7.210;2023-04-25T09:46:56;159.77;;;151.67;;
56307;SDS011;42217;50.422;7.210;2023-04-25T09:49:22;137.83;;;131.30;;
56307;SDS011;42217;50.422;7.210;2023-04-25T09:51:59;171.17;;;162.77;;
56307;SDS011;42217;50.422;7.210;2023-04-25T09:54:25;202.23;;;192.07;;
56307;SDS011;42217;50.422;7.210;2023-04-25T09:56:52;237.43;;;226.53;;
56307;SDS011;42217;50.422;7.210;2023-04-25T09:59:22;228.37;;;217.40;;
56307;SDS011;42217;50.422;7.210;2023-04-25T10:01:48;213.90;;;203.93;;
56307;SDS011;42217;50.422;7.210;2023-04-25T10:04:24;240.33;;;228.67;;
56307;SDS011;42217;50.422;7.210;2023-04-25T10:06:53;157.57;;;149.83;;
56307;SDS011;42217;50.422;7.210;2023-04-25T10:09:20;130.13;;;123.87;;
56307;SDS011;42217;50.422;7.210;2023-04-25T10:11:48;91.50;;;86.90;;
56307;SDS011;42217;50.422;7.210;2023-04-25T10:14:15;85.43;;;81.07;;
56307;SDS011;42217;50.422;7.210;2023-04-25T10:16:41;91.17;;;86.53;;
56307;SDS011;42217;50.422;7.210;2023-04-25T10:19:09;101.97;;;96.87;;
56307;SDS011;42217;50.422;7.210;2023-04-25T10:21:35;86.73;;;82.50;;
56307;SDS011;42217;50.422;7.210;2023-04-25T10:24:09;86.00;;;81.30;;
56307;SDS011;42217;50.422;7.210;2023-04-25T10:26:35;102.23;;;97.30;;
56307;SDS011;42217;50.422;7.210;2023-04-25T10:29:02;76.63;;;72.93;;
56307;SDS011;42217;50.422;7.210;2023-04-25T10:31:32;100.37;;;95.17;;
56307;SDS011;42217;50.422;7.210;2023-04-25T10:33:59;73.97;;;70.23;;
56307;SDS011;42217;50.422;7.210;2023-04-25T10:36:26;73.60;;;69.67;;
56307;SDS011;42217;50.422;7.210;2023-04-25T10:38:56;67.23;;;63.63;;
56307;SDS011;42217;50.422;7.210;2023-04-25T10:41:32;79.53;;;75.43;;
56307;SDS011;42217;50.422;7.210;2023-04-25T10:44:12;78.27;;;74.10;;
56307;SDS011;42217;50.422;7.210;2023-04-25T10:46:38;74.83;;;71.23;;
56307;SDS011;42217;50.422;7.210;2023-04-25T10:49:04;70.53;;;66.90;;
56307;SDS011;42217;50.422;7.210;2023-04-25T10:51:33;72.50;;;69.03;;
56307;SDS011;42217;50.422;7.210;2023-04-25T10:54:06;72.20;;;67.77;;
56307;SDS011;42217;50.422;7.210;2023-04-25T10:59:11;71.97;;;68.17;;
56307;SDS011;42217;50.422;7.210;2023-04-25T11:04:24;72.70;;;68.93;;
56307;SDS011;42217;50.422;7.210;2023-04-25T11:06:54;90.83;;;86.00;;
56307;SDS011;42217;50.422;7.210;2023-04-25T11:09:35;74.83;;;70.50;;
56307;SDS011;42217;50.422;7.210;2023-04-25T11:12:03;74.50;;;70.57;;
56307;SDS011;42217;50.422;7.210;2023-04-25T11:14:30;80.37;;;75.93;;
56307;SDS011;42217;50.422;7.210;2023-04-25T11:16:59;76.53;;;72.80;;
56307;SDS011;42217;50.422;7.210;2023-04-25T11:19:26;86.67;;;82.27;;
56307;SDS011;42217;50.422;7.210;2023-04-25T11:21:59;142.17;;;134.70;;
56307;SDS011;42217;50.422;7.210;2023-04-25T11:24:32;75.57;;;71.37;;
56307;SDS011;42217;50.422;7.210;2023-04-25T11:26:59;75.30;;;71.60;;
56307;SDS011;42217;50.422;7.210;2023-04-25T11:29:30;139.07;;;132.60;;
56307;SDS011;42217;50.422;7.210;2023-04-25T11:31:56;94.23;;;89.53;;
56307;SDS011;42217;50.422;7.210;2023-04-25T11:34:23;81.17;;;77.03;;
56307;SDS011;42217;50.422;7.210;2023-04-25T11:36:50;181.10;;;172.33;;
56307;SDS011;42217;50.422;7.210;2023-04-25T11:39:17;92.20;;;87.30;;
56307;SDS011;42217;50.422;7.210;2023-04-25T11:41:46;85.77;;;81.57;;
56307;SDS011;42217;50.422;7.210;2023-04-25T11:44:15;70.73;;;66.10;;
56307;SDS011;42217;50.422;7.210;2023-04-25T11:46:41;94.67;;;90.10;;
56307;SDS011;42217;50.422;7.210;2023-04-25T11:49:08;77.57;;;73.27;;
56307;SDS011;42217;50.422;7.210;2023-04-25T11:51:44;74.73;;;70.83;;
56307;SDS011;42217;50.422;7.210;2023-04-25T11:54:12;109.30;;;103.00;;
56307;SDS011;42217;50.422;7.210;2023-04-25T11:56:41;74.73;;;70.27;;
56307;SDS011;42217;50.422;7.210;2023-04-25T11:59:10;74.13;;;69.85;;
56307;SDS011;42217;50.422;7.210;2023-04-25T12:01:37;76.67;;;72.27;;
56307;SDS011;42217;50.422;7.210;2023-04-25T12:06:41;97.87;;;93.03;;
56307;SDS011;42217;50.422;7.210;2023-04-25T12:09:09;76.00;;;72.03;;
56307;SDS011;42217;50.422;7.210;2023-04-25T12:11:41;80.63;;;76.47;;
56307;SDS011;42217;50.422;7.210;2023-04-25T12:14:08;68.77;;;64.30;;
56307;SDS011;42217;50.422;7.210;2023-04-25T12:16:45;75.67;;;71.73;;
56307;SDS011;42217;50.422;7.210;2023-04-25T12:19:18;73.27;;;69.17;;
56307;SDS011;42217;50.422;7.210;2023-04-25T12:21:46;73.43;;;68.90;;
56307;SDS011;42217;50.422;7.210;2023-04-25T12:24:13;80.17;;;76.07;;
56307;SDS011;42217;50.422;7.210;2023-04-25T12:26:58;71.53;;;68.03;;
56307;SDS011;42217;50.422;7.210;2023-04-25T12:29:29;73.07;;;68.77;;
56307;SDS011;42217;50.422;7.210;2023-04-25T12:31:58;69.47;;;65.70;;
56307;SDS011;42217;50.422;7.210;2023-04-25T12:34:24;76.50;;;72.90;;
56307;SDS011;42217;50.422;7.210;2023-04-25T12:36:51;76.37;;;72.43;;
56307;SDS011;42217;50.422;7.210;2023-04-25T12:39:18;83.57;;;79.13;;
56307;SDS011;42217;50.422;7.210;2023-04-25T12:41:45;73.33;;;69.63;;
56307;SDS011;42217;50.422;7.210;2023-04-25T12:44:12;76.50;;;72.53;;
56307;SDS011;42217;50.422;7.210;2023-04-25T12:46:38;65.90;;;62.20;;
56307;SDS011;42217;50.422;7.210;2023-04-25T12:49:04;82.33;;;77.57;;
56307;SDS011;42217;50.422;7.210;2023-04-25T12:51:32;67.50;;;64.07;;
56307;SDS011;42217;50.422;7.210;2023-04-25T12:53:58;67.90;;;64.23;;
56307;SDS011;42217;50.422;7.210;2023-04-25T12:56:25;72.63;;;68.57;;
56307;SDS011;42217;50.422;7.210;2023-04-25T12:58:51;76.03;;;71.67;;
56307;SDS011;42217;50.422;7.210;2023-04-25T13:01:17;72.20;;;67.70;;
56307;SDS011;42217;50.422;7.210;2023-04-25T13:03:44;75.50;;;71.77;;
56307;SDS011;42217;50.422;7.210;2023-04-25T13:06:09;72.13;;;67.87;;
56307;SDS011;42217;50.422;7.210;2023-04-25T13:08:36;75.40;;;71.20;;
56307;SDS011;42217;50.422;7.210;2023-04-25T13:11:03;86.43;;;82.03;;
56307;SDS011;42217;50.422;7.210;2023-04-25T13:13:29;97.07;;;92.10;;
56307;SDS011;42217;50.422;7.210;2023-04-25T13:15:56;101.47;;;95.20;;
56307;SDS011;42217;50.422;7.210;2023-04-25T13:18:22;84.20;;;78.43;;
56307;SDS011;42217;50.422;7.210;2023-04-25T13:20:51;86.13;;;80.00;;
56307;SDS011;42217;50.422;7.210;2023-04-25T13:23:18;171.03;;;161.53;;
56307;SDS011;42217;50.422;7.210;2023-04-25T13:25:44;95.43;;;90.33;;
56307;SDS011;42217;50.422;7.210;2023-04-25T13:28:10;110.13;;;104.03;;
56307;SDS011;42217;50.422;7.210;2023-04-25T13:30:35;92.90;;;88.13;;
56307;SDS011;42217;50.422;7.210;2023-04-25T13:33:02;89.27;;;84.77;;
56307;SDS011;42217;50.422;7.210;2023-04-25T13:35:29;73.77;;;69.80;;
56307;SDS011;42217;50.422;7.210;2023-04-25T13:37:55;85.40;;;80.90;;
56307;SDS011;42217;50.422;7.210;2023-04-25T13:40:21;85.50;;;80.57;;
56307;SDS011;42217;50.422;7.210;2023-04-25T13:42:47;70.40;;;66.37;;
56307;SDS011;42217;50.422;7.210;2023-04-25T13:45:12;72.17;;;68.53;;
56307;SDS011;42217;50.422;7.210;2023-04-25T13:47:38;69.43;;;66.03;;
56307;SDS011;42217;50.422;7.210;2023-04-25T13:50:04;80.77;;;76.03;;
56307;SDS011;42217;50.422;7.210;2023-04-25T13:52:31;80.27;;;75.70;;
56307;SDS011;42217;50.422;7.210;2023-04-25T13:54:57;75.67;;;70.77;;
56307;SDS011;42217;50.422;7.210;2023-04-25T13:57:23;83.80;;;79.13;;
56307;SDS011;42217;50.422;7.210;2023-04-25T13:59:48;73.83;;;69.80;;
56307;SDS011;42217;50.422;7.210;2023-04-25T14:02:15;72.57;;;68.33;;
56307;SDS011;42217;50.422;7.210;2023-04-25T14:04:40;79.43;;;74.90;;
56307;SDS011;42217;50.422;7.210;2023-04-25T14:07:07;77.87;;;73.60;;
56307;SDS011;42217;50.422;7.210;2023-04-25T14:09:33;75.87;;;71.80;;
56307;SDS011;42217;50.422;7.210;2023-04-25T14:11:59;100.43;;;95.23;;
56307;SDS011;42217;50.422;7.210;2023-04-25T14:14:25;72.13;;;68.37;;
56307;SDS011;42217;50.422;7.210;2023-04-25T14:16:51;64.97;;;61.30;;